Time;durP1;ratioP1;P1;durP2;ratioP2;P2;SDS_P1;SDS_P2;PMS_P1;PMS_P2;Temp;Humidity;BMP_temperature;BMP_pressure;BME280_temperature;BME280_humidity;BME280_pressure;Samples;Min_cycle;Max_cycle;Signal;HPM_P1;HPM_P2
2021/01/22 00:02:21;;;;;;;3.28;1.40;;;;;;;8.99;80.40;98566.22;5111274;28;20055;-75
2021/01/22 00:04:48;;;;;;;2.75;1.50;;;;;;;8.85;79.20;98573.31;5112901;28;20036;-78
2021/01/22 00:07:17;;;;;;;3.67;1.80;;;;;;;8.47;80.73;98576.63;5112090;28;20047;-82
2021/01/22 00:09:44;;;;;;;3.40;1.88;;;;;;;8.39;81.95;98585.81;5113534;28;20051;-77
2021/01/22 00:12:11;;;;;;;2.72;1.40;;;;;;;8.11;81.66;98581.47;5097013;28;20051;-77
2021/01/22 00:14:40;;;;;;;3.08;1.58;;;;;;;7.66;82.80;98595.41;5114268;28;20081;-76
2021/01/22 00:17:07;;;;;;;2.83;1.70;;;;;;;7.24;83.18;98605.03;5114291;28;20051;-76
2021/01/22 00:19:52;;;;;;;3.33;1.88;;;;;;;7.18;83.60;98611.91;5100811;28;20043;-75
2021/01/22 00:22:19;;;;;;;4.43;1.70;;;;;;;7.17;81.96;98618.50;5093725;28;20047;-77
2021/01/22 00:24:51;;;;;;;4.53;1.90;;;;;;;7.07;81.27;98624.44;5095357;28;20048;-78
2021/01/22 00:27:18;;;;;;;3.72;1.60;;;;;;;7.19;81.01;98616.22;5110828;28;20063;-74
2021/01/22 00:29:47;;;;;;;2.03;1.30;;;;;;;7.10;81.00;98621.81;5085307;28;20067;-78
2021/01/22 00:32:13;;;;;;;2.38;1.30;;;;;;;7.33;81.71;98633.09;5059735;28;20048;-77
2021/01/22 00:34:41;;;;;;;2.40;1.45;;;;;;;7.32;80.41;98634.25;5093097;28;20048;-76
2021/01/22 00:37:12;;;;;;;2.30;1.30;;;;;;;7.01;79.97;98636.75;5096304;28;20052;-73
2021/01/22 00:39:39;;;;;;;3.25;1.50;;;;;;;7.14;80.86;98658.31;5077528;28;20059;-78
2021/01/22 00:42:09;;;;;;;2.92;1.50;;;;;;;6.85;81.86;98637.41;5075827;28;20040;-74
2021/01/22 00:44:45;;;;;;;2.28;1.50;;;;;;;6.84;81.94;98649.50;5075910;28;20051;-78
2021/01/22 00:47:12;;;;;;;1.85;1.10;;;;;;;7.20;80.19;98661.63;5075187;28;20484;-76
2021/01/22 00:49:39;;;;;;;3.38;1.10;;;;;;;7.00;79.25;98659.78;5091085;28;20052;-76
2021/01/22 00:52:06;;;;;;;2.13;1.25;;;;;;;6.82;80.61;98661.91;5053539;28;20055;-77
2021/01/22 00:54:37;;;;;;;3.75;1.55;;;;;;;6.87;79.33;98663.63;5074468;28;20476;-74
2021/01/22 00:57:25;;;;;;;3.83;1.10;;;;;;;6.99;79.50;98671.88;5073876;28;20040;-73
2021/01/22 00:59:55;;;;;;;;;;;;;;;6.69;79.92;98663.78;5073984;28;20056;-72
2021/01/22 01:02:22;;;;;;;3.20;1.38;;;;;;;6.75;80.42;98667.94;5078251;28;19933;-75
2021/01/22 01:04:49;;;;;;;3.10;1.50;;;;;;;7.05;79.97;98663.09;5079981;28;20040;-74
2021/01/22 01:07:40;;;;;;;5.55;1.35;;;;;;;6.84;80.15;98670.56;5054985;28;20052;-75
2021/01/22 01:10:10;;;;;;;;;;;;;;;6.85;80.08;98672.97;5059635;28;20330;-73
2021/01/22 01:12:56;;;;;;;2.72;1.27;;;;;;;6.89;80.08;98675.81;5075375;28;19920;-71
2021/01/22 01:15:49;;;;;;;4.20;1.40;;;;;;;6.54;81.14;98675.38;5070988;28;20060;-71
2021/01/22 01:18:15;;;;;;;4.47;1.60;;;;;;;6.54;81.77;98672.66;5055723;28;20049;-73
2021/01/22 01:20:49;;;;;;;2.65;1.58;;;;;;;6.47;81.84;98668.84;5024731;28;20049;-76
2021/01/22 01:23:16;;;;;;;3.13;1.58;;;;;;;6.53;82.46;98679.28;5073808;28;20476;-70
2021/01/22 01:25:42;;;;;;;5.43;1.75;;;;;;;6.80;82.01;98678.66;5074029;28;20053;-70
2021/01/22 01:28:09;;;;;;;3.45;1.67;;;;;;;6.82;80.78;98670.09;5059730;28;20048;-73
2021/01/22 01:30:36;;;;;;;2.63;1.60;;;;;;;6.69;81.88;98669.28;5093510;28;20369;-71
2021/01/22 01:33:03;;;;;;;2.67;1.52;;;;;;;6.81;80.87;98683.00;5058766;28;20055;-77
2021/01/22 01:35:31;;;;;;;6.72;1.60;;;;;;;6.87;80.88;98678.09;5092760;28;20055;-73
2021/01/22 01:37:58;;;;;;;6.03;1.58;;;;;;;6.84;81.36;98679.59;5075438;28;20528;-70
2021/01/22 01:40:26;;;;;;;3.65;1.60;;;;;;;6.72;81.49;98682.28;5093329;28;20048;-70
2021/01/22 01:42:53;;;;;;;2.97;1.48;;;;;;;6.59;81.70;98677.91;5092703;28;20051;-71
2021/01/22 01:45:20;;;;;;;5.30;1.98;;;;;;;6.58;82.37;98680.97;5075567;28;20058;-74
2021/01/22 01:47:47;;;;;;;5.32;1.80;;;;;;;6.35;82.78;98671.53;5093470;28;20040;-71
2021/01/22 01:50:14;;;;;;;5.13;2.00;;;;;;;6.46;83.31;98676.28;5092454;28;20063;-76
2021/01/22 01:52:42;;;;;;;6.63;1.90;;;;;;;6.66;83.21;98666.41;5074332;28;20051;-72
2021/01/22 01:55:09;;;;;;;9.45;1.90;;;;;;;6.99;82.09;98666.41;5075305;28;20055;-72
2021/01/22 01:57:37;;;;;;;4.55;1.50;;;;;;;7.06;81.00;98672.88;5057208;28;20039;-74
2021/01/22 02:00:06;;;;;;;3.58;1.65;;;;;;;7.18;79.54;98677.59;5075284;28;20048;-70
2021/01/22 02:02:34;;;;;;;4.13;1.63;;;;;;;6.76;80.90;98683.19;5093683;28;20056;-71
2021/01/22 02:05:02;;;;;;;3.92;1.67;;;;;;;6.61;81.39;98678.38;5073960;28;20059;-74
2021/01/22 02:07:29;;;;;;;4.35;1.90;;;;;;;6.69;81.53;98674.75;5058385;28;20056;-71
2021/01/22 02:09:56;;;;;;;4.85;1.60;;;;;;;6.96;80.94;98678.81;5073834;28;20052;-71
2021/01/22 02:12:23;;;;;;;3.63;1.50;;;;;;;7.04;79.94;98682.59;5091877;28;20044;-71
2021/01/22 02:14:50;;;;;;;4.20;1.42;;;;;;;7.07;80.47;98677.25;5091668;28;20052;-71
2021/01/22 02:17:17;;;;;;;4.25;1.40;;;;;;;7.28;79.11;98679.88;5057568;28;20048;-71
2021/01/22 02:20:03;;;;;;;3.80;1.42;;;;;;;7.27;78.66;98686.50;5092122;28;20052;-72
2021/01/22 02:22:31;;;;;;;5.13;1.65;;;;;;;6.88;80.42;98676.16;5092632;28;20051;-70
2021/01/22 02:24:59;;;;;;;7.22;1.65;;;;;;;7.33;80.18;98685.13;5091728;28;20055;-70
2021/01/22 02:27:29;;;;;;;2.40;1.42;;;;;;;7.02;80.18;98690.34;5075117;28;20051;-72
2021/01/22 02:29:57;;;;;;;5.22;1.30;;;;;;;6.84;80.94;98685.06;5074407;28;20067;-74
2021/01/22 02:32:24;;;;;;;4.53;1.80;;;;;;;6.98;81.40;98690.22;5067850;28;20404;-70
2021/01/22 02:34:52;;;;;;;3.83;1.40;;;;;;;7.06;81.21;98694.00;5074190;28;20048;-70
2021/01/22 02:37:22;;;;;;;4.00;1.42;;;;;;;7.10;81.40;98690.25;5075044;28;20861;-71
2021/01/22 02:39:51;;;;;;;3.97;1.58;;;;;;;7.14;82.06;98695.84;5074507;28;20063;-69
2021/01/22 02:42:20;;;;;;;2.63;1.50;;;;;;;7.27;81.89;98689.25;5073774;28;20053;-71
2021/01/22 02:44:47;;;;;;;4.22;1.33;;;;;;;7.34;80.21;98684.00;5075745;28;20150;-73
2021/01/22 02:47:16;;;;;;;2.83;1.42;;;;;;;7.01;81.86;98675.84;5095884;28;20048;-72
2021/01/22 02:49:43;;;;;;;3.47;1.55;;;;;;;7.07;81.44;98673.69;5078391;28;20373;-69
2021/01/22 02:52:10;;;;;;;7.00;1.50;;;;;;;7.22;80.92;98673.81;5095578;28;20492;-71
2021/01/22 02:54:38;;;;;;;3.85;1.33;;;;;;;7.34;80.53;98679.31;5096586;28;20051;-72
2021/01/22 02:57:12;;;;;;;6.35;1.50;;;;;;;7.33;79.82;98685.13;5096488;28;20055;-71
2021/01/22 02:59:48;;;;;;;5.57;1.35;;;;;;;6.95;81.51;98690.09;5096479;28;20048;-72
2021/01/22 03:02:31;;;;;;;6.55;1.30;;;;;;;6.97;81.85;98704.25;5077468;28;20048;-71
2021/01/22 03:04:59;;;;;;;3.58;1.30;;;;;;;7.16;81.30;98713.53;5077144;28;20051;-70
2021/01/22 03:07:53;;;;;;;3.05;1.15;;;;;;;7.00;80.12;98715.31;5078490;28;20052;-72
2021/01/22 03:10:22;;;;;;;5.25;1.20;;;;;;;7.09;80.04;98723.44;5078194;28;20055;-72
2021/01/22 03:12:50;;;;;;;5.47;1.50;;;;;;;7.33;79.78;98723.47;5096152;28;20066;-70
2021/01/22 03:15:18;;;;;;;3.83;1.23;;;;;;;7.39;79.66;98720.16;5095969;28;20484;-70
2021/01/22 03:17:45;;;;;;;3.70;1.10;;;;;;;7.19;80.05;98723.00;5095186;28;20060;-71
2021/01/22 03:20:15;;;;;;;11.73;1.25;;;;;;;7.49;77.62;98719.75;5095282;28;20044;-71
2021/01/22 03:22:42;;;;;;;2.20;0.90;;;;;;;6.82;77.34;98703.75;5077949;28;20368;-72
2021/01/22 03:25:13;;;;;;;0.88;0.60;;;;;;;6.98;75.87;98703.91;5095034;28;20056;-71
2021/01/22 03:27:40;;;;;;;4.32;0.80;;;;;;;7.14;76.75;98691.16;5095747;28;20380;-70
2021/01/22 03:30:08;;;;;;;4.00;0.85;;;;;;;6.83;72.48;98680.72;5095184;28;20052;-78
2021/01/22 03:32:35;;;;;;;2.83;1.00;;;;;;;7.05;72.55;98682.25;5095658;28;20048;-69
2021/01/22 03:35:04;;;;;;;3.40;0.70;;;;;;;7.42;72.44;98675.69;5095314;28;20063;-71
2021/01/22 03:37:31;;;;;;;2.13;0.60;;;;;;;7.21;71.28;98682.38;5095660;28;20387;-71
2021/01/22 03:39:58;;;;;;;1.30;0.43;;;;;;;7.31;71.57;98673.72;5095338;28;20035;-69
2021/01/22 03:42:25;;;;;;;2.17;0.60;;;;;;;7.08;71.79;98670.63;5095420;28;20048;-69
2021/01/22 03:44:52;;;;;;;3.95;0.68;;;;;;;7.26;72.19;98677.50;5094295;28;20052;-69
2021/01/22 03:47:20;;;;;;;1.60;0.60;;;;;;;7.04;70.59;98671.66;5094320;28;20047;-71
2021/01/22 03:49:54;;;;;;;3.45;0.60;;;;;;;6.61;70.80;98674.81;5093254;28;20352;-70
2021/01/22 03:52:20;;;;;;;3.67;0.57;;;;;;;6.68;70.56;98678.63;5094681;28;20055;-72
2021/01/22 03:54:50;;;;;;;4.32;0.73;;;;;;;6.79;69.84;98670.78;5094639;28;20052;-70
2021/01/22 03:57:37;;;;;;;2.80;0.60;;;;;;;6.68;68.61;98675.09;5079163;28;20051;-70
2021/01/22 04:00:05;;;;;;;2.80;0.70;;;;;;;6.78;69.56;98680.94;5094268;28;20051;-71
2021/01/22 04:02:45;;;;;;;4.00;0.85;;;;;;;7.01;69.21;98678.59;5078592;28;20499;-72
2021/01/22 04:05:19;;;;;;;6.72;0.70;;;;;;;7.34;68.75;98684.00;5077614;28;20059;-71
2021/01/22 04:07:46;;;;;;;1.98;0.50;;;;;;;7.13;67.75;98686.03;5094086;28;20059;-69
2021/01/22 04:10:15;;;;;;;4.93;1.02;;;;;;;7.00;69.00;98684.41;5076892;28;20052;-74
2021/01/22 04:12:42;;;;;;;3.08;0.68;;;;;;;7.01;68.63;98686.78;5088703;28;20059;-72
2021/01/22 04:15:09;;;;;;;3.28;0.60;;;;;;;7.00;67.64;98690.69;5094723;28;20052;-72
2021/01/22 04:17:43;;;;;;;6.20;0.82;;;;;;;7.09;68.11;98696.88;5094445;28;20056;-73
2021/01/22 04:20:20;;;;;;;2.88;0.63;;;;;;;6.94;67.62;98693.97;5093950;28;20059;-73
2021/01/22 04:22:51;;;;;;;8.32;1.27;;;;;;;7.02;69.12;98695.81;5077527;28;20055;-73
2021/01/22 04:25:18;;;;;;;4.68;0.57;;;;;;;7.05;68.20;98698.69;5076338;28;20059;-73
2021/01/22 04:27:46;;;;;;;3.58;0.70;;;;;;;6.87;69.78;98696.47;5093940;28;20052;-72
2021/01/22 04:30:13;;;;;;;5.88;0.80;;;;;;;6.63;70.42;98695.25;5059661;28;20396;-73
2021/01/22 04:32:41;;;;;;;2.30;0.57;;;;;;;6.48;69.62;98692.34;5094706;28;20044;-73
2021/01/22 04:35:18;;;;;;;6.82;0.85;;;;;;;6.40;70.93;98701.41;5075987;28;20044;-73
2021/01/22 04:37:44;;;;;;;3.42;0.70;;;;;;;6.57;71.16;98699.31;5094247;28;20052;-73
2021/01/22 04:40:12;;;;;;;5.82;0.63;;;;;;;6.72;71.60;98706.09;5076569;28;20044;-70
2021/01/22 04:42:43;;;;;;;4.22;0.55;;;;;;;6.83;69.99;98701.81;5094608;28;20059;-76
2021/01/22 04:45:11;;;;;;;6.93;0.80;;;;;;;6.99;70.45;98691.81;5075779;28;20079;-73
2021/01/22 04:47:39;;;;;;;6.28;0.70;;;;;;;7.21;70.57;98702.34;5076264;28;20040;-72
2021/01/22 04:50:08;;;;;;;4.30;0.65;;;;;;;7.10;69.37;98700.38;5076191;28;20056;-72
2021/01/22 04:52:36;;;;;;;3.28;0.50;;;;;;;6.97;70.86;98701.50;5076409;28;20051;-70
2021/01/22 04:55:06;;;;;;;4.78;0.75;;;;;;;7.37;69.36;98697.81;5059245;28;20048;-73
2021/01/22 04:57:42;;;;;;;4.28;0.70;;;;;;;7.56;68.83;98700.78;5093169;28;20052;-74
2021/01/22 05:00:11;;;;;;;2.88;0.50;;;;;;;7.90;68.46;98705.78;5092810;28;20083;-71
2021/01/22 05:02:39;;;;;;;5.63;0.75;;;;;;;7.92;68.26;98708.97;5075139;28;20052;-70
2021/01/22 05:05:07;;;;;;;3.00;0.50;;;;;;;7.52;69.49;98723.72;5076024;28;20527;-72
2021/01/22 05:07:35;;;;;;;5.53;0.80;;;;;;;7.75;69.48;98719.38;5092922;28;20159;-75
2021/01/22 05:10:04;;;;;;;1.90;0.60;;;;;;;7.74;70.34;98721.31;5093566;28;20056;-75
2021/01/22 05:12:35;;;;;;;2.57;0.50;;;;;;;7.76;69.82;98718.22;5074974;28;20056;-71
2021/01/22 05:15:19;;;;;;;6.80;0.50;;;;;;;7.61;70.79;98718.94;5092944;28;20377;-74
2021/01/22 05:17:58;;;;;;;3.67;0.65;;;;;;;7.33;72.85;98723.47;5093465;28;20534;-71
2021/01/22 05:20:40;;;;;;;4.18;0.65;;;;;;;7.41;73.48;98722.59;5092750;28;20495;-68
2021/01/22 05:23:09;;;;;;;6.28;1.20;;;;;;;7.45;74.10;98715.25;5075239;28;20056;-71
2021/01/22 05:26:04;;;;;;;6.13;0.90;;;;;;;7.42;74.04;98726.91;5074950;28;20047;-73
2021/01/22 05:28:42;;;;;;;4.35;1.02;;;;;;;7.33;73.82;98718.00;5010989;28;20528;-73
2021/01/22 05:31:10;;;;;;;7.50;0.90;;;;;;;7.34;74.64;98722.34;5010963;28;20537;-75
2021/01/22 05:33:41;;;;;;;3.58;0.80;;;;;;;7.62;73.80;98717.78;4995523;28;20054;-70
2021/01/22 05:36:22;;;;;;;3.67;0.65;;;;;;;7.39;74.58;98720.16;5011404;28;20049;-73
2021/01/22 05:38:50;;;;;;;5.25;0.82;;;;;;;7.34;75.67;98722.34;4978621;28;20042;-72
2021/01/22 05:41:17;;;;;;;5.45;0.70;;;;;;;7.40;75.34;98712.75;4994225;28;20150;-72
2021/01/22 05:43:44;;;;;;;4.75;0.90;;;;;;;7.51;74.92;98722.94;4994162;28;20053;-70
2021/01/22 05:46:12;;;;;;;9.02;1.48;;;;;;;7.47;74.70;98734.91;4994474;28;20104;-78
2021/01/22 05:48:41;;;;;;;4.32;0.70;;;;;;;7.46;74.54;98734.09;5011424;28;20069;-75
2021/01/22 05:51:08;;;;;;;6.07;1.10;;;;;;;7.56;74.92;98744.63;5011217;28;20057;-73
2021/01/22 05:53:44;;;;;;;3.75;0.88;;;;;;;7.62;75.17;98745.19;5010582;28;20057;-72
2021/01/22 05:56:13;;;;;;;4.68;0.82;;;;;;;7.46;75.77;98747.78;5010714;28;20058;-71
2021/01/22 05:58:42;;;;;;;4.57;1.00;;;;;;;7.55;75.10;98745.75;4994733;28;20062;-72
2021/01/22 06:01:10;;;;;;;3.50;1.17;;;;;;;7.31;75.73;98739.44;5010501;28;20054;-73
2021/01/22 06:03:39;;;;;;;4.55;0.80;;;;;;;7.22;76.28;98749.72;5009942;28;20168;-72
2021/01/22 06:06:07;;;;;;;4.65;0.98;;;;;;;7.15;76.52;98749.47;5051773;28;20052;-71
2021/01/22 06:08:50;;;;;;;3.90;0.85;;;;;;;7.23;76.80;98752.09;5092542;28;20047;-76
2021/01/22 06:11:20;;;;;;;6.50;1.17;;;;;;;7.05;77.45;98739.72;5074523;28;20048;-70
2021/01/22 06:13:48;;;;;;;3.58;0.90;;;;;;;7.06;77.17;98730.38;5074936;28;20055;-72
2021/01/22 06:16:17;;;;;;;4.97;1.30;;;;;;;7.07;77.45;98733.91;5093241;28;20052;-73
2021/01/22 06:18:56;;;;;;;4.68;1.08;;;;;;;7.20;77.25;98732.81;5059047;28;20055;-72
2021/01/22 06:21:48;;;;;;;3.90;1.10;;;;;;;7.18;76.94;98743.31;5094030;28;20491;-75
2021/01/22 06:24:16;;;;;;;6.18;1.02;;;;;;;7.39;76.08;98747.56;5075989;28;20483;-76
2021/01/22 06:26:43;;;;;;;4.97;1.35;;;;;;;7.28;76.39;98757.38;5094486;28;20069;-74
2021/01/22 06:29:11;;;;;;;8.80;2.22;;;;;;;7.16;77.11;98764.75;5061649;28;20052;-74
2021/01/22 06:31:38;;;;;;;6.70;1.63;;;;;;;7.06;77.64;98770.66;5075340;28;20059;-74
2021/01/22 06:34:05;;;;;;;7.07;1.70;;;;;;;6.97;78.08;98775.41;5059397;28;20495;-76
2021/01/22 06:36:36;;;;;;;4.75;1.50;;;;;;;7.00;78.11;98775.53;5095171;28;20055;-75
2021/01/22 06:39:06;;;;;;;6.57;1.42;;;;;;;7.16;77.71;98781.16;5097589;28;20044;-77
2021/01/22 06:41:34;;;;;;;7.10;1.55;;;;;;;7.11;77.40;98790.41;5098152;28;20052;-77
2021/01/22 06:44:01;;;;;;;6.32;1.80;;;;;;;7.17;76.77;98791.78;5076931;28;20062;-75
2021/01/22 06:46:30;;;;;;;5.03;1.73;;;;;;;6.98;78.08;98802.44;5094775;28;20059;-75
2021/01/22 06:48:58;;;;;;;8.23;2.25;;;;;;;6.92;77.99;98797.50;5059212;28;20040;-75
2021/01/22 06:51:30;;;;;;;9.75;2.10;;;;;;;6.89;78.52;98804.44;5074215;28;20079;-77
2021/01/22 06:54:15;;;;;;;5.78;1.60;;;;;;;7.10;77.96;98818.09;5092515;28;20048;-72
2021/01/22 06:56:54;;;;;;;5.15;2.10;;;;;;;6.98;77.67;98816.13;5092342;28;20055;-76
2021/01/22 06:59:22;;;;;;;6.57;1.60;;;;;;;6.75;78.51;98818.41;5074139;28;20055;-73
2021/01/22 07:01:50;;;;;;;5.97;1.88;;;;;;;6.98;77.70;98829.81;5092291;28;20507;-75
2021/01/22 07:04:29;;;;;;;9.02;1.98;;;;;;;7.04;77.47;98844.09;5092028;28;20056;-73
2021/01/22 07:06:57;;;;;;;7.97;1.95;;;;;;;6.99;77.46;98853.28;5091176;28;20048;-75
2021/01/22 07:09:42;;;;;;;8.05;2.45;;;;;;;6.80;76.85;98848.31;5073483;28;20410;-74
2021/01/22 07:12:10;;;;;;;6.13;2.20;;;;;;;6.83;76.97;98858.56;5073527;28;20056;-78
2021/01/22 07:14:47;;;;;;;13.70;5.57;;;;;;;6.99;76.46;98857.97;5091819;28;20514;-77
2021/01/22 07:17:27;;;;;;;10.63;3.47;;;;;;;7.07;76.11;98857.91;5073598;28;20052;-74
2021/01/22 07:20:09;;;;;;;7.55;3.35;;;;;;;7.04;75.32;98853.09;5073154;28;20055;-74
2021/01/22 07:22:55;;;;;;;8.43;2.75;;;;;;;7.14;75.17;98862.84;5074163;28;20056;-79
2021/01/22 07:25:40;;;;;;;9.40;2.80;;;;;;;7.20;74.72;98870.50;5092183;28;20060;-78
2021/01/22 07:28:16;;;;;;;8.38;2.40;;;;;;;7.01;75.44;98874.88;5090349;28;20062;-76
2021/01/22 07:30:43;;;;;;;8.73;2.70;;;;;;;6.71;76.54;98876.88;5092660;28;20396;-76
2021/01/22 07:33:38;;;;;;;9.15;2.55;;;;;;;7.04;75.70;98885.16;5077533;28;20051;-78
2021/01/22 07:36:09;;;;;;;10.18;3.10;;;;;;;7.28;74.63;98886.06;5095138;28;20051;-75
2021/01/22 07:38:38;;;;;;;9.30;3.50;;;;;;;7.05;75.33;98893.03;5060793;28;20388;-74
2021/01/22 07:41:06;;;;;;;7.00;3.10;;;;;;;6.96;76.43;98891.50;5094362;28;20503;-78
2021/01/22 07:43:33;;;;;;;8.25;3.28;;;;;;;6.95;75.87;98896.16;5094929;28;20052;-79
2021/01/22 07:46:12;;;;;;;11.27;3.13;;;;;;;7.09;75.80;98893.97;5077319;28;20052;-77
2021/01/22 07:48:40;;;;;;;8.93;3.45;;;;;;;7.02;75.64;98887.41;5094789;28;20052;-76
2021/01/22 07:51:38;;;;;;;12.27;5.63;;;;;;;7.07;75.30;98901.69;5094452;28;20052;-72
2021/01/22 07:54:05;;;;;;;10.15;4.88;;;;;;;7.12;74.94;98911.63;5077959;28;20537;-77
2021/01/22 07:56:35;;;;;;;7.28;3.20;;;;;;;7.19;74.61;98918.19;5094704;28;20056;-76
2021/01/22 07:59:03;;;;;;;11.68;3.10;;;;;;;7.00;75.53;98911.56;5094699;28;20059;-74
2021/01/22 08:01:31;;;;;;;9.13;3.50;;;;;;;6.91;75.61;98914.38;5076233;28;20056;-75
2021/01/22 08:03:58;;;;;;;6.45;3.08;;;;;;;6.98;75.29;98917.38;5094727;28;20510;-79
2021/01/22 08:06:25;;;;;;;9.25;3.53;;;;;;;7.05;75.54;98916.84;5076758;28;20048;-76
2021/01/22 08:09:05;;;;;;;9.95;3.80;;;;;;;6.79;76.30;98908.84;5077031;28;20055;-75
2021/01/22 08:11:32;;;;;;;12.23;4.30;;;;;;;7.01;75.72;98904.97;5094430;28;20479;-76
2021/01/22 08:13:59;;;;;;;12.88;5.55;;;;;;;7.25;75.30;98916.06;5094140;28;20071;-74
2021/01/22 08:16:26;;;;;;;10.48;4.45;;;;;;;6.81;75.78;98915.59;5094782;28;20048;-72
2021/01/22 08:18:53;;;;;;;11.00;4.95;;;;;;;6.95;75.90;98922.72;5076758;28;20055;-71
2021/01/22 08:21:20;;;;;;;8.82;4.25;;;;;;;7.06;75.46;98934.88;5076601;28;20491;-73
2021/01/22 08:23:48;;;;;;;10.43;4.90;;;;;;;6.93;76.03;98946.88;5094118;28;20059;-76
2021/01/22 08:26:15;;;;;;;11.98;4.32;;;;;;;6.91;76.33;98954.63;5093678;28;20731;-72
2021/01/22 08:28:43;;;;;;;10.02;4.53;;;;;;;6.96;76.15;98948.97;5074365;28;20044;-75
2021/01/22 08:31:13;;;;;;;12.95;4.82;;;;;;;7.37;74.37;98944.31;5063591;28;20494;-70
2021/01/22 08:33:44;;;;;;;9.57;4.50;;;;;;;7.06;74.99;98930.19;5109738;28;20043;-74
2021/01/22 08:36:11;;;;;;;9.55;3.63;;;;;;;6.93;75.43;98939.47;5096182;28;20044;-71
2021/01/22 08:38:38;;;;;;;10.23;4.13;;;;;;;7.00;75.30;98949.91;5076299;28;20052;-75
2021/01/22 08:41:05;;;;;;;13.52;4.75;;;;;;;7.20;74.61;98954.59;5076195;28;20051;-75
2021/01/22 08:43:49;;;;;;;9.40;4.65;;;;;;;7.01;75.37;98965.97;5093524;28;20040;-73
2021/01/22 08:46:20;;;;;;;8.70;4.30;;;;;;;6.96;76.07;98974.38;5092965;28;20043;-74
2021/01/22 08:48:53;;;;;;;9.40;3.90;;;;;;;6.96;75.80;98990.03;5098503;28;20053;-75
2021/01/22 08:51:28;;;;;;;12.50;4.25;;;;;;;7.19;75.29;98991.31;5113220;28;20044;-75
2021/01/22 08:53:56;;;;;;;10.60;3.88;;;;;;;7.10;75.56;98990.56;5114278;28;20058;-73
2021/01/22 08:56:24;;;;;;;9.07;4.05;;;;;;;7.29;75.48;98988.16;5095303;28;20384;-73
2021/01/22 08:59:10;;;;;;;9.98;4.20;;;;;;;7.30;75.16;98987.03;5112959;28;20044;-73
2021/01/22 09:01:46;;;;;;;8.70;3.97;;;;;;;7.26;76.49;98989.66;5094874;28;20044;-73
2021/01/22 09:04:17;;;;;;;13.27;4.55;;;;;;;7.31;75.69;98994.13;5090434;28;20134;-72
2021/01/22 09:06:50;;;;;;;14.05;6.88;;;;;;;7.20;75.69;98992.94;5101351;28;20050;-71
2021/01/22 09:09:36;;;;;;;10.27;4.93;;;;;;;7.47;74.62;98998.66;5088522;28;20039;-76
2021/01/22 09:12:26;;;;;;;9.93;4.18;;;;;;;7.54;75.07;99007.16;5073133;28;20051;-78
2021/01/22 09:15:14;;;;;;;24.25;10.13;;;;;;;7.62;74.64;99016.41;5111750;28;20036;-73
2021/01/22 09:17:54;;;;;;;11.63;4.97;;;;;;;7.78;74.76;99007.25;5101306;28;20047;-75
2021/01/22 09:20:56;;;;;;;12.23;4.97;;;;;;;7.89;73.48;99013.94;5086172;28;20052;-70
2021/01/22 09:23:24;;;;;;;9.63;4.70;;;;;;;7.44;74.05;99014.97;5087577;28;20414;-72
2021/01/22 09:25:54;;;;;;;12.63;5.13;;;;;;;7.63;74.63;99015.31;5109008;28;20059;-72
2021/01/22 09:28:24;;;;;;;;;;;;;;;7.56;73.96;99031.47;5089607;28;20051;-72
2021/01/22 09:30:52;;;;;;;10.65;5.80;;;;;;;7.59;73.07;99028.88;5077295;28;19924;-70
2021/01/22 09:33:19;;;;;;;11.13;5.68;;;;;;;7.58;73.33;99032.72;5109881;28;20043;-72
2021/01/22 09:35:49;;;;;;;12.57;5.45;;;;;;;7.73;73.80;99042.28;5109856;28;20506;-72
2021/01/22 09:38:16;;;;;;;11.35;5.93;;;;;;;7.60;73.38;99044.16;5109497;28;20047;-71
2021/01/22 09:40:49;;;;;;;12.07;6.88;;;;;;;7.64;73.84;99039.63;5090806;28;20059;-77
2021/01/22 09:43:17;;;;;;;14.90;7.63;;;;;;;7.65;73.60;99045.91;5112207;28;20074;-78
2021/01/22 09:45:44;;;;;;;12.75;7.15;;;;;;;7.92;72.87;99053.56;5111379;28;20051;-77
2021/01/22 09:48:15;;;;;;;11.48;7.15;;;;;;;7.85;73.95;99051.38;5094892;28;20044;-78
2021/01/22 09:50:42;;;;;;;20.00;7.75;;;;;;;7.91;72.87;99051.97;5094301;28;20151;-76
2021/01/22 09:53:10;;;;;;;14.27;7.53;;;;;;;8.05;73.75;99049.75;5110030;28;20056;-75
2021/01/22 09:55:49;;;;;;;12.85;7.80;;;;;;;7.94;73.50;99051.28;5096793;28;20039;-78
2021/01/22 09:58:16;;;;;;;12.73;7.55;;;;;;;7.97;73.50;99050.63;5111967;28;20395;-76
2021/01/22 10:00:43;;;;;;;13.38;7.43;;;;;;;8.01;73.55;99054.28;5094629;28;20043;-74
2021/01/22 10:03:10;;;;;;;23.02;12.18;;;;;;;8.02;72.95;99048.47;5112556;28;20035;-79
2021/01/22 10:05:39;;;;;;;12.68;6.60;;;;;;;7.97;72.96;99053.34;5107845;28;20070;-75
2021/01/22 10:08:06;;;;;;;11.45;6.30;;;;;;;7.98;72.27;99055.75;5089714;28;20044;-72
2021/01/22 10:10:33;;;;;;;16.38;5.60;;;;;;;8.15;72.03;99052.06;5099711;28;20039;-74
2021/01/22 10:13:00;;;;;;;8.95;5.68;;;;;;;8.42;71.01;99059.69;5111601;28;20059;-73
2021/01/22 10:15:27;;;;;;;13.05;5.13;;;;;;;8.34;70.97;99054.31;5090315;28;20043;-72
2021/01/22 10:17:54;;;;;;;9.38;5.35;;;;;;;8.21;70.34;99056.19;5111070;28;20047;-76
2021/01/22 10:20:21;;;;;;;11.45;5.78;;;;;;;7.91;71.38;99052.75;5112000;28;20055;-75
2021/01/22 10:22:48;;;;;;;11.75;6.15;;;;;;;8.23;71.38;99067.63;5056254;28;20044;-74
2021/01/22 10:25:18;;;;;;;11.98;6.28;;;;;;;8.05;71.62;99068.94;5105899;28;20040;-73
2021/01/22 10:27:44;;;;;;;10.70;5.88;;;;;;;8.25;71.50;99070.88;5111072;28;20515;-73
2021/01/22 10:30:12;;;;;;;15.77;7.10;;;;;;;8.16;70.94;99078.34;5088364;28;20250;-72
2021/01/22 10:32:39;;;;;;;33.17;19.45;;;;;;;8.25;72.00;99079.09;5074371;28;20052;-74
2021/01/22 10:35:07;;;;;;;13.70;6.40;;;;;;;8.29;70.86;99090.19;5073020;28;20056;-74
2021/01/22 10:37:34;;;;;;;11.07;6.32;;;;;;;8.54;70.83;99100.09;5091350;28;20403;-79
2021/01/22 10:40:02;;;;;;;12.15;6.47;;;;;;;8.43;70.61;99110.72;5055249;28;20044;-75
2021/01/22 10:42:29;;;;;;;14.07;6.78;;;;;;;8.59;70.71;99114.44;5070379;28;20059;-79
2021/01/22 10:44:56;;;;;;;12.95;6.88;;;;;;;8.50;70.53;99116.44;5072102;28;20040;-78
2021/01/22 10:47:23;;;;;;;12.73;6.93;;;;;;;8.63;69.80;99122.78;5068872;28;20048;-72
2021/01/22 10:49:56;;;;;;;10.10;6.57;;;;;;;8.47;70.79;99121.81;5091572;28;20051;-68
2021/01/22 10:52:23;;;;;;;11.20;7.03;;;;;;;8.75;70.86;99129.06;5040058;28;20044;-69
2021/01/22 10:54:50;;;;;;;15.05;6.70;;;;;;;8.91;69.73;99138.28;5091673;28;20044;-71
2021/01/22 10:57:18;;;;;;;11.95;7.57;;;;;;;8.76;70.21;99144.44;5073212;28;20044;-73
2021/01/22 10:59:47;;;;;;;14.60;7.72;;;;;;;8.79;70.34;99151.97;5074111;28;20063;-72
2021/01/22 11:02:14;;;;;;;11.57;6.80;;;;;;;8.78;70.38;99152.31;5085779;28;20041;-80
2021/01/22 11:04:41;;;;;;;10.75;6.75;;;;;;;8.87;70.18;99145.56;5091280;28;20483;-76
2021/01/22 11:07:12;;;;;;;13.80;6.80;;;;;;;8.74;70.13;99156.88;5052237;28;20048;-75
2021/01/22 11:09:39;;;;;;;14.93;7.00;;;;;;;8.63;71.05;99156.50;5076552;28;20044;-74
2021/01/22 11:12:06;;;;;;;14.18;7.97;;;;;;;8.55;70.86;99162.06;5077051;28;20039;-78
2021/01/22 11:14:33;;;;;;;14.60;6.82;;;;;;;8.51;70.51;99159.19;5090126;28;20048;-79
2021/01/22 11:17:00;;;;;;;11.70;6.22;;;;;;;8.52;70.58;99157.28;5091395;28;20056;-70
2021/01/22 11:19:30;;;;;;;10.48;5.97;;;;;;;8.62;70.30;99152.16;5093748;28;20410;-69
2021/01/22 11:21:58;;;;;;;;;;;;;;;8.38;70.87;99163.06;5094918;28;20052;-72
2021/01/22 11:24:24;;;;;;;13.50;5.05;;;;;;;8.27;70.86;99155.56;5076069;28;19920;-70
2021/01/22 11:26:51;;;;;;;12.95;5.20;;;;;;;8.50;70.14;99145.81;5090826;28;20143;-74
2021/01/22 11:29:18;;;;;;;12.25;5.32;;;;;;;8.41;70.39;99153.31;5083248;28;20055;-71
2021/01/22 11:31:45;;;;;;;11.55;5.43;;;;;;;8.51;70.03;99150.16;5091021;28;20055;-78
2021/01/22 11:34:12;;;;;;;14.18;4.68;;;;;;;8.23;70.32;99146.38;5093178;28;20352;-74
2021/01/22 11:36:39;;;;;;;13.45;4.82;;;;;;;8.54;70.03;99133.03;5094622;28;20506;-73
2021/01/22 11:39:06;;;;;;;9.70;4.22;;;;;;;8.72;69.01;99135.25;5071547;28;20395;-75
2021/01/22 11:41:33;;;;;;;12.40;4.63;;;;;;;8.43;69.68;99132.66;5060007;28;20283;-70
2021/01/22 11:44:02;;;;;;;11.93;4.32;;;;;;;8.42;69.09;99136.53;5091608;28;20368;-78
2021/01/22 11:46:29;;;;;;;12.05;4.53;;;;;;;8.54;69.49;99141.28;5090971;28;20058;-79
2021/01/22 11:48:56;;;;;;;14.43;4.55;;;;;;;8.34;70.00;99139.34;5074199;28;20069;-75
2021/01/22 11:51:22;;;;;;;14.25;5.22;;;;;;;8.87;68.25;99136.56;5088341;28;20368;-79
2021/01/22 11:53:52;;;;;;;9.00;4.25;;;;;;;8.77;68.59;99137.78;5094430;28;20071;-78
2021/01/22 11:56:19;;;;;;;13.10;4.65;;;;;;;8.67;68.83;99149.19;5100533;28;20055;-75